Accueil
METAR-TAF:

METAR-TAF

Aéroports :

Aéroport Adnan-Menderes

Izmir, Turquie

latitude: 38-16N, longitude: 027-09E, altitude: 125 m

Observation

Le bulletin a été fait il y a 48 minutes, à 10:50 UTC
Vent 17 kt de nord/nord-est, variant entre nord et nord-est
Température 9°C
Humidité 53%
Pression 1031 hPa
Visibilité 10 km ou plus
Nuages épars à une hauteur de 3000 ft

METAR: LTBJ 201050Z 03017KT 350V050 9999 SCT030 09/M00 Q1031 NOSIG RMK RWY16 02016KT

Heure: 14:38 (11:38 UTC)

Prévision

Le bulletin a été fait il y a 6 heures et 58 minutes, à 04:40 UTC
Prévision valable du 20 à 06 UTC au 21 à 06 UTC
Vent 18 kt de nord avec des rafales jusqu'à 28 kt
Visibilité 10 km ou plus
Nuages épars à une hauteur de 3000 ft

TAF: LTBJ 200440Z 2006/2106 36018G28KT 9999 SCT030

Observations et prévisions météorologiques de plus de 4000 aéroports (messages METAR et TAF).

Les stations disponibles sont représentées par des disques jaunes et rouges sur la carte.

Passer la souris dessus pour voir le nom de la station.

Cliquer dessus pour voir les observations et prévisions météorologiques.

Pour changer de carte: cliquez sur les boutons verts avec une croix noire pour zoomer, sur le bouton vert avec un tiret pour effectuer un zoom arrière, ou sur les flèches vertes pour les cartes adjacentes.


METAR-TAF: